Time;durP1;ratioP1;P1;durP2;ratioP2;P2;SDS_P1;SDS_P2;PMS_P1;PMS_P2;Temp;Humidity;BMP_temperature;BMP_pressure;BME280_temperature;BME280_humidity;BME280_pressure;Samples;Min_cycle;Max_cycle;Signal;HPM_P1;HPM_P2
2021/06/14 00:02:02;;;;;;;13.57;8.90;;;;;;;18.58;75.82;99276.84;5104741;28;20028;-58
2021/06/14 00:04:28;;;;;;;11.32;8.82;;;;;;;18.52;75.79;99282.47;5124267;28;20031;-60
2021/06/14 00:06:54;;;;;;;11.73;9.50;;;;;;;18.51;75.85;99291.28;5124556;28;20019;-60
2021/06/14 00:09:22;;;;;;;12.50;9.20;;;;;;;18.52;77.06;99290.34;5124688;28;20361;-60
2021/06/14 00:11:48;;;;;;;15.35;9.73;;;;;;;18.54;76.67;99283.22;5124787;28;20019;-60
2021/06/14 00:14:14;;;;;;;12.90;9.45;;;;;;;18.55;76.17;99287.53;5124612;28;20224;-60
2021/06/14 00:16:40;;;;;;;12.60;9.20;;;;;;;18.54;75.99;99284.06;5124659;28;20031;-59
2021/06/14 00:19:08;;;;;;;11.88;8.65;;;;;;;18.58;75.98;99295.19;5108925;28;20031;-60
2021/06/14 00:21:34;;;;;;;11.27;8.88;;;;;;;18.53;75.89;99299.91;5103890;28;20043;-59
2021/06/14 00:24:00;;;;;;;12.27;9.45;;;;;;;18.42;76.39;99306.63;5103976;28;20198;-60
2021/06/14 00:26:26;;;;;;;10.68;8.43;;;;;;;18.34;76.23;99308.03;5104166;28;20016;-60
2021/06/14 00:28:58;;;;;;;11.18;8.57;;;;;;;18.33;76.05;99308.94;5118146;28;20061;-59
2021/06/14 00:31:24;;;;;;;11.52;8.15;;;;;;;18.33;76.33;99311.56;5124512;28;20036;-59
2021/06/14 00:33:50;;;;;;;14.25;8.70;;;;;;;18.29;76.00;99313.53;5124404;28;20019;-59
2021/06/14 00:36:15;;;;;;;10.35;8.68;;;;;;;18.40;75.92;99323.41;5124240;28;20200;-59
2021/06/14 00:38:41;;;;;;;10.90;8.73;;;;;;;18.41;75.66;99328.56;5112347;28;20043;-59
2021/06/14 00:41:08;;;;;;;10.77;8.68;;;;;;;18.48;75.44;99320.31;5104002;27;20059;-59
2021/06/14 00:43:36;;;;;;;12.85;9.05;;;;;;;18.40;76.43;99308.50;5103784;28;20083;-59
2021/06/14 00:46:02;;;;;;;10.15;8.57;;;;;;;18.49;76.01;99330.69;5103838;28;20120;-59
2021/06/14 00:48:28;;;;;;;9.80;8.27;;;;;;;18.51;75.40;99341.94;5113192;28;20027;-59
2021/06/14 00:50:59;;;;;;;10.38;8.63;;;;;;;18.10;75.71;99284.97;5124024;28;20120;-59
2021/06/14 00:53:41;;;;;;;11.93;8.02;;;;;;;18.46;75.86;99362.34;5123912;28;20019;-60
2021/06/14 00:56:14;;;;;;;10.27;7.82;;;;;;;18.46;75.97;99344.00;5124491;27;20028;-59
2021/06/14 00:58:41;;;;;;;11.70;8.18;;;;;;;18.42;75.29;99343.31;5133038;27;20046;-60
2021/06/14 01:01:07;;;;;;;12.35;8.38;;;;;;;18.46;75.59;99344.84;5123782;28;20023;-60
2021/06/14 01:03:34;;;;;;;12.57;9.05;;;;;;;18.50;75.12;99344.66;5111487;28;20028;-60
2021/06/14 01:06:05;;;;;;;11.57;8.48;;;;;;;18.47;76.01;99353.56;5103393;28;20028;-61
2021/06/14 01:08:33;;;;;;;11.73;9.32;;;;;;;18.14;75.42;99294.31;5094839;28;20030;-59
2021/06/14 01:11:04;;;;;;;11.20;7.97;;;;;;;18.45;76.31;99337.94;5123748;28;20043;-58
2021/06/14 01:13:38;;;;;;;10.68;8.00;;;;;;;18.49;75.81;99341.19;5123813;28;20032;-59
2021/06/14 01:16:21;;;;;;;9.40;7.72;;;;;;;18.48;75.67;99336.03;5123576;28;20020;-59
2021/06/14 01:18:55;;;;;;;11.40;8.60;;;;;;;18.35;75.57;99313.16;5111100;28;20054;-59
2021/06/14 01:21:27;;;;;;;13.75;8.20;;;;;;;18.48;76.10;99341.28;5103474;28;20032;-59
2021/06/14 01:24:28;;;;;;;10.77;8.50;;;;;;;18.44;75.50;99343.22;5102946;28;20028;-58
2021/06/14 01:27:04;;;;;;;8.97;8.03;;;;;;;18.46;75.71;99344.00;5103021;28;20281;-58
2021/06/14 01:29:31;;;;;;;12.07;7.97;;;;;;;18.44;75.66;99341.47;5120545;28;20035;-59
2021/06/14 01:31:58;;;;;;;12.02;8.52;;;;;;;18.07;76.33;99301.72;5123334;28;20028;-60
2021/06/14 01:34:28;;;;;;;13.95;8.80;;;;;;;18.07;76.15;99292.97;5123315;28;20031;-59
2021/06/14 01:36:56;;;;;;;11.13;8.70;;;;;;;18.31;76.36;99345.75;5123292;28;20069;-60
2021/06/14 01:39:25;;;;;;;14.77;8.85;;;;;;;17.97;76.98;99290.09;5106414;28;20052;-60
2021/06/14 01:41:53;;;;;;;8.88;7.55;;;;;;;18.05;76.58;99300.09;5102829;28;20212;-59
2021/06/14 01:44:21;;;;;;;10.07;8.20;;;;;;;18.21;77.19;99340.22;5102686;28;20063;-59
2021/06/14 01:46:50;;;;;;;14.27;8.85;;;;;;;17.83;77.00;99290.00;5102791;28;20028;-59
2021/06/14 01:49:18;;;;;;;12.43;8.70;;;;;;;18.24;77.18;99339.16;5118082;28;20027;-59
2021/06/14 01:51:44;;;;;;;13.32;8.32;;;;;;;18.25;77.15;99336.47;5123041;28;20231;-59
2021/06/14 01:54:10;;;;;;;10.48;8.23;;;;;;;18.32;77.00;99341.38;5123233;28;20034;-59
2021/06/14 01:56:42;;;;;;;13.15;9.40;;;;;;;17.91;77.73;99303.53;5123029;28;20079;-59
2021/06/14 01:59:13;;;;;;;17.17;10.27;;;;;;;17.69;78.64;99304.72;5108987;28;20024;-59
2021/06/14 02:01:40;;;;;;;13.43;9.43;;;;;;;18.06;77.54;99341.94;5102765;28;20186;-59
2021/06/14 02:04:06;;;;;;;14.48;8.90;;;;;;;18.26;76.97;99353.06;5119197;28;20090;-59
2021/06/14 02:06:36;;;;;;;12.18;9.05;;;;;;;18.30;77.01;99351.94;5104933;28;20040;-59
2021/06/14 02:09:11;;;;;;;11.68;8.20;;;;;;;18.29;77.32;99364.19;5122755;28;20311;-59
2021/06/14 02:11:41;;;;;;;10.70;9.32;;;;;;;18.07;77.21;99327.06;5122964;28;20019;-59
2021/06/14 02:14:09;;;;;;;9.90;8.90;;;;;;;18.37;77.41;99381.25;5122883;28;20045;-60
2021/06/14 02:16:37;;;;;;;12.02;8.98;;;;;;;18.41;77.10;99378.38;5122818;28;20291;-60
2021/06/14 02:19:03;;;;;;;10.48;8.30;;;;;;;18.43;77.54;99384.34;5109429;28;20337;-60
2021/06/14 02:21:29;;;;;;;11.45;8.55;;;;;;;18.38;77.16;99393.44;5102569;28;20329;-60
2021/06/14 02:23:55;;;;;;;14.02;8.43;;;;;;;18.38;77.52;99383.78;5102290;28;20032;-60
2021/06/14 02:26:21;;;;;;;12.90;9.73;;;;;;;18.40;77.72;99387.16;5102460;28;20028;-59
2021/06/14 02:28:47;;;;;;;13.90;9.07;;;;;;;18.54;76.77;99390.75;5113136;28;20061;-60
2021/06/14 02:31:13;;;;;;;12.32;9.13;;;;;;;18.63;76.56;99395.44;5126100;28;20072;-60
2021/06/14 02:33:39;;;;;;;15.73;9.90;;;;;;;18.64;76.70;99399.78;5126669;28;20212;-60
2021/06/14 02:36:06;;;;;;;18.98;9.80;;;;;;;18.66;77.58;99403.13;5126670;28;20212;-59
2021/06/14 02:38:32;;;;;;;22.20;9.88;;;;;;;18.75;77.27;99410.44;5130000;27;20107;-60
2021/06/14 02:40:59;;;;;;;16.75;8.98;;;;;;;18.73;76.72;99409.69;5126783;28;20049;-59
2021/06/14 02:43:25;;;;;;;10.20;8.60;;;;;;;18.86;75.90;99415.06;5126467;28;20077;-59
2021/06/14 02:45:51;;;;;;;9.10;7.28;;;;;;;18.94;75.99;99414.63;5126400;28;20039;-59
2021/06/14 02:48:19;;;;;;;13.00;7.18;;;;;;;18.73;75.43;99375.59;5119831;28;20020;-59
2021/06/14 02:50:47;;;;;;;9.35;8.32;;;;;;;19.06;75.31;99427.00;5105848;28;20024;-59
2021/06/14 02:53:14;;;;;;;9.13;8.20;;;;;;;18.83;75.37;99369.81;5105999;28;20031;-59
2021/06/14 02:56:01;;;;;;;10.20;8.25;;;;;;;19.18;75.43;99421.94;5105989;28;20016;-59
2021/06/14 02:58:35;;;;;;;9.88;6.68;;;;;;;18.94;73.41;99375.25;5113054;28;20032;-60
2021/06/14 03:01:02;;;;;;;7.93;7.10;;;;;;;19.29;74.24;99438.72;5126204;28;20026;-59
2021/06/14 03:03:28;;;;;;;14.20;7.40;;;;;;;19.34;73.61;99432.34;5114628;28;20027;-58
2021/06/14 03:05:55;;;;;;;10.02;6.63;;;;;;;19.45;73.42;99437.75;5105637;28;20332;-59
2021/06/14 03:08:21;;;;;;;9.23;6.90;;;;;;;19.50;73.87;99433.09;5112626;28;20028;-58
2021/06/14 03:10:48;;;;;;;7.32;6.30;;;;;;;19.61;72.97;99438.50;5126049;28;20028;-59
2021/06/14 03:13:15;;;;;;;9.73;6.00;;;;;;;19.72;72.57;99429.09;5125847;28;20031;-58
2021/06/14 03:15:41;;;;;;;9.88;5.45;;;;;;;19.77;71.82;99438.38;5125893;28;20024;-58
2021/06/14 03:18:08;;;;;;;7.30;6.20;;;;;;;19.82;71.24;99444.22;5121383;28;20019;-58
2021/06/14 03:20:35;;;;;;;7.75;5.38;;;;;;;19.88;70.98;99447.38;5105210;28;20031;-58
2021/06/14 03:23:01;;;;;;;7.63;5.28;;;;;;;19.96;70.92;99453.00;5105361;28;20091;-58
2021/06/14 03:25:27;;;;;;;8.43;5.55;;;;;;;20.03;70.95;99463.97;5105139;28;20209;-58
2021/06/14 03:27:55;;;;;;;8.32;6.55;;;;;;;20.08;71.23;99461.88;5107608;28;20024;-59
2021/06/14 03:30:22;;;;;;;6.80;5.32;;;;;;;20.14;70.91;99467.59;5125534;28;20024;-58
2021/06/14 03:32:49;;;;;;;8.25;5.95;;;;;;;20.28;70.30;99468.47;5125587;28;20026;-57
2021/06/14 03:35:21;;;;;;;5.72;5.13;;;;;;;20.10;69.13;99415.31;5125524;28;20020;-59
2021/06/14 03:37:47;;;;;;;8.20;6.18;;;;;;;20.72;69.01;99467.31;5123985;28;20039;-60
2021/06/14 03:40:14;;;;;;;7.18;5.03;;;;;;;21.06;68.50;99467.69;5104299;28;20044;-60
2021/06/14 03:42:40;;;;;;;7.22;5.22;;;;;;;21.08;67.87;99468.44;5116210;28;20041;-60
2021/06/14 03:45:08;;;;;;;9.88;5.40;;;;;;;21.07;67.77;99471.16;5125406;28;20027;-60
2021/06/14 03:47:34;;;;;;;5.65;4.90;;;;;;;20.99;67.00;99464.66;5125157;28;20322;-60
2021/06/14 03:50:00;;;;;;;8.68;5.05;;;;;;;20.99;66.29;99474.31;5124881;28;20324;-60
2021/06/14 03:52:26;;;;;;;5.90;5.10;;;;;;;21.07;66.28;99472.00;5125332;28;20035;-59
2021/06/14 03:54:52;;;;;;;7.82;6.35;;;;;;;21.05;66.25;99479.19;5125045;28;20030;-59
2021/06/14 03:57:18;;;;;;;6.97;4.82;;;;;;;20.98;66.92;99488.44;5125022;28;20023;-59
2021/06/14 03:59:44;;;;;;;6.60;3.88;;;;;;;21.03;66.26;99484.56;5124662;28;20023;-59
2021/06/14 04:02:09;;;;;;;6.82;4.47;;;;;;;21.09;65.86;99485.06;5124543;28;20030;-59
2021/06/14 04:04:51;;;;;;;4.50;4.00;;;;;;;21.12;65.62;99469.91;5104314;28;20024;-60
2021/06/14 04:07:17;;;;;;;6.50;4.70;;;;;;;21.18;65.21;99476.53;5104557;28;20043;-60
2021/06/14 04:09:43;;;;;;;5.03;4.00;;;;;;;21.24;65.60;99481.38;5121556;28;20308;-59
2021/06/14 04:12:09;;;;;;;6.18;4.20;;;;;;;21.25;65.11;99480.44;5124972;28;20035;-60
2021/06/14 04:14:35;;;;;;;4.45;3.92;;;;;;;21.24;64.59;99480.56;5124608;28;20027;-60
2021/06/14 04:17:01;;;;;;;6.47;4.28;;;;;;;21.25;64.84;99485.72;5124482;28;20388;-61
2021/06/14 04:19:26;;;;;;;4.55;4.00;;;;;;;21.32;64.64;99483.47;5109488;28;20087;-60
2021/06/14 04:21:52;;;;;;;6.47;4.38;;;;;;;21.35;64.47;99492.00;5104080;28;20205;-60
2021/06/14 04:24:18;;;;;;;5.35;4.00;;;;;;;21.39;64.56;99484.72;5103989;28;20092;-60
2021/06/14 04:26:44;;;;;;;4.90;4.10;;;;;;;21.39;63.92;99479.47;5103873;28;20040;-59
2021/06/14 04:29:09;;;;;;;4.00;3.60;;;;;;;21.43;63.40;99478.28;5116415;28;20343;-61
2021/06/14 04:31:35;;;;;;;6.20;4.03;;;;;;;21.53;64.03;99483.78;5124205;28;20023;-60
2021/06/14 04:34:01;;;;;;;4.05;3.67;;;;;;;21.58;63.61;99486.09;5124382;28;20159;-61
2021/06/14 04:36:27;;;;;;;4.70;3.90;;;;;;;21.61;63.83;99485.91;5124234;28;20023;-61
2021/06/14 04:38:52;;;;;;;6.60;3.92;;;;;;;21.63;61.76;99490.09;5113948;28;20093;-59
2021/06/14 04:41:18;;;;;;;3.90;3.50;;;;;;;21.59;60.16;99487.78;5103858;28;20032;-61
2021/06/14 04:43:44;;;;;;;3.42;3.13;;;;;;;21.67;61.39;99478.38;5103598;28;20050;-60
2021/06/14 04:46:10;;;;;;;4.32;3.70;;;;;;;21.72;62.13;99488.63;5103912;28;20024;-61
2021/06/14 04:48:36;;;;;;;6.22;3.63;;;;;;;21.80;61.66;99493.34;5093004;28;20371;-59
2021/06/14 04:51:01;;;;;;;7.15;3.72;;;;;;;21.88;61.64;99486.56;5124042;28;20035;-59
2021/06/14 04:53:27;;;;;;;4.15;3.53;;;;;;;21.98;61.52;99488.56;5123129;28;20216;-59
2021/06/14 04:55:53;;;;;;;6.05;4.07;;;;;;;22.00;61.50;99497.19;5123741;28;20035;-59
2021/06/14 04:58:19;;;;;;;7.20;3.60;;;;;;;22.09;61.98;99496.53;5118035;27;20247;-59
2021/06/14 05:00:45;;;;;;;5.85;3.53;;;;;;;22.15;60.89;99506.63;5123563;28;20347;-57
2021/06/14 05:03:11;;;;;;;4.75;3.47;;;;;;;22.21;61.09;99500.06;5096515;28;20275;-59
2021/06/14 05:05:37;;;;;;;6.88;3.38;;;;;;;22.38;60.52;99506.78;5103225;28;20023;-58
2021/06/14 05:08:04;;;;;;;4.45;3.70;;;;;;;22.46;60.36;99509.69;5105662;28;20032;-59
2021/06/14 05:10:30;;;;;;;6.07;3.80;;;;;;;22.47;59.63;99514.00;5143794;27;20090;-59
2021/06/14 05:12:55;;;;;;;4.72;3.40;;;;;;;22.41;59.71;99515.28;5144250;27;20051;-59
2021/06/14 05:15:22;;;;;;;4.45;3.55;;;;;;;22.51;59.23;99510.19;5144271;27;20034;-59
2021/06/14 05:17:48;;;;;;;5.53;3.60;;;;;;;22.84;58.94;99513.06;5123388;27;20021;-59
2021/06/14 05:20:16;;;;;;;4.38;2.97;;;;;;;23.02;58.22;99508.19;5113134;28;20060;-58
2021/06/14 05:22:43;;;;;;;4.03;3.60;;;;;;;22.95;56.81;99509.63;5111753;28;20035;-61
2021/06/14 05:25:10;;;;;;;4.72;3.25;;;;;;;23.06;57.16;99510.47;5102875;28;20091;-60
2021/06/14 05:27:36;;;;;;;5.30;3.13;;;;;;;23.17;57.21;99517.59;5112208;28;20081;-60
2021/06/14 05:30:02;;;;;;;6.00;3.45;;;;;;;23.07;55.77;99520.09;5110313;28;20241;-60
2021/06/14 05:32:29;;;;;;;4.05;3.00;;;;;;;23.32;56.84;99514.75;5108931;28;20030;-60
2021/06/14 05:34:54;;;;;;;4.90;3.60;;;;;;;23.24;58.20;99517.97;5110102;28;20032;-59
2021/06/14 05:37:20;;;;;;;6.90;3.70;;;;;;;23.22;58.03;99518.09;5111929;28;20024;-59
2021/06/14 05:39:46;;;;;;;3.63;2.63;;;;;;;23.27;56.27;99520.38;5111020;28;20036;-61
2021/06/14 05:42:11;;;;;;;4.00;3.33;;;;;;;23.38;55.98;99520.38;5110432;28;20039;-60
2021/06/14 05:44:38;;;;;;;3.47;3.17;;;;;;;23.36;55.09;99524.09;5110295;28;20359;-59
2021/06/14 05:47:04;;;;;;;4.03;3.22;;;;;;;23.38;54.88;99527.47;5111286;28;20015;-59
2021/06/14 05:49:29;;;;;;;3.53;3.15;;;;;;;23.46;55.48;99532.16;5109951;28;20016;-58
2021/06/14 05:51:55;;;;;;;3.80;3.15;;;;;;;23.46;55.98;99529.50;5112237;28;20023;-59
2021/06/14 05:54:21;;;;;;;3.78;3.47;;;;;;;23.54;56.11;99522.66;5110808;28;20020;-61
2021/06/14 05:56:47;;;;;;;3.60;3.15;;;;;;;23.72;54.89;99533.59;5110906;28;20283;-61
2021/06/14 05:59:12;;;;;;;4.53;3.30;;;;;;;23.82;54.44;99531.09;5112909;28;20035;-60
2021/06/14 06:01:38;;;;;;;5.72;3.38;;;;;;;23.89;54.39;99537.59;5113023;28;20331;-60
2021/06/14 06:04:04;;;;;;;5.20;3.35;;;;;;;24.01;53.77;99529.63;5114378;28;20034;-59
2021/06/14 06:06:29;;;;;;;3.47;3.17;;;;;;;24.38;53.70;99531.97;5106651;28;20023;-59
2021/06/14 06:08:55;;;;;;;3.85;3.05;;;;;;;24.51;53.16;99531.78;5115455;28;20020;-59
2021/06/14 06:11:21;;;;;;;5.38;3.50;;;;;;;24.50;54.23;99541.56;5127040;28;20097;-60
2021/06/14 06:13:47;;;;;;;3.85;2.83;;;;;;;24.40;54.46;99543.25;5127000;28;20030;-59
2021/06/14 06:16:13;;;;;;;3.28;2.95;;;;;;;24.39;54.88;99538.94;5126769;28;20054;-59
2021/06/14 06:18:39;;;;;;;4.25;3.20;;;;;;;24.48;54.58;99546.13;5120023;28;20020;-60
2021/06/14 06:21:05;;;;;;;3.17;2.88;;;;;;;24.53;54.28;99543.94;5106367;28;20024;-59
2021/06/14 06:23:31;;;;;;;3.47;2.92;;;;;;;24.57;53.86;99553.31;5106278;28;20502;-59
2021/06/14 06:25:57;;;;;;;4.25;3.10;;;;;;;24.45;51.96;99546.38;5106353;28;20028;-61
2021/06/14 06:28:22;;;;;;;4.20;3.20;;;;;;;24.32;52.43;99551.00;5110313;28;20024;-61
2021/06/14 06:30:48;;;;;;;3.30;2.97;;;;;;;24.68;52.40;99554.25;5126712;28;20027;-62
2021/06/14 06:33:14;;;;;;;4.63;3.38;;;;;;;24.72;53.31;99555.69;5126547;28;20024;-62
2021/06/14 06:35:39;;;;;;;5.93;3.00;;;;;;;24.79;52.43;99557.69;5126708;28;20068;-62
2021/06/14 06:38:05;;;;;;;4.07;3.50;;;;;;;24.83;51.60;99554.78;5124637;28;20123;-62
2021/06/14 06:40:32;;;;;;;6.40;3.08;;;;;;;24.87;53.65;99553.56;5106088;28;20114;-62
2021/06/14 06:42:57;;;;;;;5.50;2.90;;;;;;;24.90;51.68;99564.75;5087984;28;20027;-61
2021/06/14 06:45:25;;;;;;;6.13;3.40;;;;;;;24.93;51.33;99553.91;5106126;28;20058;-61
2021/06/14 06:47:51;;;;;;;3.42;3.13;;;;;;;24.98;51.59;99575.56;5105934;28;20028;-61
2021/06/14 06:50:18;;;;;;;3.55;3.25;;;;;;;24.89;51.15;99570.19;5125993;28;20051;-61
2021/06/14 06:52:43;;;;;;;3.10;2.83;;;;;;;25.02;52.48;99573.47;5126242;28;20136;-62
2021/06/14 06:55:12;;;;;;;4.63;3.08;;;;;;;24.91;52.86;99547.91;5126235;28;20031;-62
2021/06/14 06:57:39;;;;;;;5.55;3.75;;;;;;;25.23;52.48;99577.97;5126051;28;20043;-62
2021/06/14 07:00:07;;;;;;;4.50;3.35;;;;;;;25.08;51.14;99521.78;5107749;28;20020;-61
2021/06/14 07:02:33;;;;;;;7.28;3.30;;;;;;;25.33;49.92;99566.47;5109168;28;20043;-62
2021/06/14 07:04:59;;;;;;;3.63;3.17;;;;;;;25.41;50.70;99579.09;5125914;28;20024;-62
2021/06/14 07:07:24;;;;;;;4.40;2.90;;;;;;;25.51;50.45;99573.84;5125875;28;20211;-61
2021/06/14 07:09:50;;;;;;;4.43;3.05;;;;;;;25.60;50.00;99580.97;5125773;28;20597;-61
2021/06/14 07:12:16;;;;;;;8.80;3.20;;;;;;;25.55;47.90;99585.84;5126005;28;20028;-61
2021/06/14 07:14:42;;;;;;;5.28;3.55;;;;;;;25.79;49.42;99579.38;5125455;28;20027;-61
2021/06/14 07:17:08;;;;;;;3.50;3.00;;;;;;;25.77;49.89;99579.53;5124972;28;20023;-60
2021/06/14 07:19:34;;;;;;;5.00;3.05;;;;;;;25.84;49.23;99580.66;5111896;28;20043;-59
2021/06/14 07:22:00;;;;;;;3.72;3.38;;;;;;;25.97;48.45;99574.31;5105445;28;20086;-60
2021/06/14 07:24:25;;;;;;;7.53;3.80;;;;;;;26.07;50.35;99567.22;5105206;28;20247;-62
2021/06/14 07:26:51;;;;;;;8.25;3.45;;;;;;;25.89;47.86;99577.59;5105192;28;20028;-58
2021/06/14 07:29:17;;;;;;;7.25;2.95;;;;;;;25.95;47.43;99571.78;5116110;28;20020;-60
2021/06/14 07:31:43;;;;;;;5.43;3.60;;;;;;;26.03;49.08;99573.78;5125379;28;20226;-59
2021/06/14 07:34:09;;;;;;;4.35;2.72;;;;;;;26.12;48.64;99572.97;5125516;28;20316;-60
2021/06/14 07:36:35;;;;;;;5.15;3.05;;;;;;;26.12;48.49;99575.63;5125360;28;20216;-58
2021/06/14 07:39:03;;;;;;;4.47;3.50;;;;;;;25.48;46.92;99513.06;5116271;28;20101;-59
2021/06/14 07:41:28;;;;;;;6.55;3.50;;;;;;;25.80;47.81;99581.91;5104834;28;20099;-59
2021/06/14 07:43:54;;;;;;;9.30;3.90;;;;;;;25.78;47.96;99578.56;5104624;28;20205;-60
2021/06/14 07:46:20;;;;;;;4.22;3.20;;;;;;;26.03;49.07;99584.41;5104867;28;20024;-59
2021/06/14 07:48:46;;;;;;;6.30;3.60;;;;;;;25.83;46.90;99578.97;5093217;28;20023;-59
2021/06/14 07:51:13;;;;;;;5.43;3.75;;;;;;;25.98;47.21;99576.81;5124967;28;20047;-60
2021/06/14 07:53:38;;;;;;;4.90;3.42;;;;;;;26.08;47.54;99583.97;5125026;28;20020;-60
2021/06/14 07:56:06;;;;;;;6.72;3.80;;;;;;;26.23;47.97;99582.63;5124926;28;20020;-58
2021/06/14 07:58:32;;;;;;;3.50;3.20;;;;;;;26.16;48.29;99584.16;5120242;28;20028;-59
2021/06/14 08:00:58;;;;;;;8.27;3.83;;;;;;;25.97;48.31;99585.75;5104357;28;20020;-59
2021/06/14 08:03:24;;;;;;;6.75;3.20;;;;;;;25.88;48.09;99596.31;5114453;28;20212;-58
2021/06/14 08:05:51;;;;;;;4.68;3.45;;;;;;;25.94;48.88;99604.59;5124655;28;20480;-58
2021/06/14 08:08:17;;;;;;;8.15;3.20;;;;;;;26.03;47.54;99599.50;5124525;28;20027;-57
2021/06/14 08:10:45;;;;;;;4.13;2.92;;;;;;;26.01;48.28;99607.59;5124545;28;20261;-58
2021/06/14 08:13:10;;;;;;;6.72;3.90;;;;;;;25.82;46.38;99601.22;5124602;28;20168;-60
2021/06/14 08:15:38;;;;;;;5.22;2.85;;;;;;;26.00;46.61;99606.72;5124602;28;20117;-57
2021/06/14 08:25:04;;;;;;;3.47;3.15;;;;;;;26.11;47.60;99603.16;5103992;28;20039;-59
2021/06/14 08:25:50;;;;;;;5.38;3.42;;;;;;;26.20;46.84;99611.28;5095538;28;20036;-58
2021/06/14 08:28:16;;;;;;;5.75;3.20;;;;;;;26.03;47.74;99610.94;5105565;28;20016;-59
2021/06/14 08:30:42;;;;;;;4.15;2.85;;;;;;;25.91;46.99;99612.81;5124122;28;20058;-59
2021/06/14 08:33:08;;;;;;;4.05;3.22;;;;;;;26.02;47.06;99598.63;5124219;28;20309;-59
2021/06/14 08:35:34;;;;;;;5.18;2.97;;;;;;;26.12;47.09;99606.63;5124177;28;20027;-60
2021/06/14 08:38:01;;;;;;;4.78;3.13;;;;;;;25.88;46.17;99607.78;5132907;27;20015;-59
2021/06/14 08:40:29;;;;;;;5.40;3.58;;;;;;;25.60;45.13;99607.50;5124193;27;20047;-58
2021/06/14 08:43:02;;;;;;;3.40;3.10;;;;;;;25.69;45.53;99608.53;5123863;28;20051;-59
2021/06/14 08:45:28;;;;;;;4.43;3.30;;;;;;;25.72;47.23;99610.06;5123800;28;20035;-58
2021/06/14 08:47:54;;;;;;;7.45;3.85;;;;;;;25.50;45.89;99614.56;5123874;28;20032;-59
2021/06/14 08:50:21;;;;;;;5.47;3.55;;;;;;;25.82;46.85;99611.81;5109118;28;20024;-58
2021/06/14 08:52:47;;;;;;;5.15;3.92;;;;;;;25.94;44.80;99609.06;5103545;28;20077;-58
2021/06/14 08:55:15;;;;;;;9.55;4.25;;;;;;;25.89;47.83;99614.75;5103203;28;20063;-60
2021/06/14 08:57:41;;;;;;;7.32;4.28;;;;;;;25.93;46.33;99610.88;5103121;28;20051;-59
2021/06/14 09:00:10;;;;;;;7.00;3.80;;;;;;;25.86;46.74;99569.09;5120038;28;20031;-59
2021/06/14 09:02:36;;;;;;;6.25;3.67;;;;;;;26.19;47.31;99618.38;5119426;28;20024;-59
2021/06/14 09:05:04;;;;;;;5.55;3.85;;;;;;;26.09;47.81;99625.50;5085079;28;20024;-60
2021/06/14 09:07:31;;;;;;;4.70;3.38;;;;;;;25.93;47.89;99620.66;5103059;28;20226;-59
2021/06/14 09:09:56;;;;;;;4.82;3.40;;;;;;;25.91;48.89;99622.59;5118090;28;20073;-60
2021/06/14 09:12:22;;;;;;;7.18;3.70;;;;;;;26.06;48.36;99625.75;5123374;28;20015;-60
2021/06/14 09:14:48;;;;;;;4.78;3.58;;;;;;;26.14;48.60;99620.63;5123408;28;20243;-60
2021/06/14 09:17:17;;;;;;;8.85;3.50;;;;;;;26.07;49.03;99622.13;5122929;28;20019;-61
2021/06/14 09:19:51;;;;;;;6.38;3.40;;;;;;;25.91;48.32;99567.72;5123066;28;20023;-60
2021/06/14 09:22:25;;;;;;;5.07;3.60;;;;;;;26.05;48.69;99581.59;5123478;28;20049;-60
2021/06/14 09:24:59;;;;;;;5.78;3.83;;;;;;;26.18;49.41;99622.88;5123087;28;20051;-59
2021/06/14 09:27:36;;;;;;;4.70;3.78;;;;;;;26.10;48.71;99628.00;5123156;28;20030;-60
2021/06/14 09:30:17;;;;;;;5.85;4.00;;;;;;;25.96;48.64;99631.81;5107128;28;20034;-61
2021/06/14 09:32:51;;;;;;;4.80;3.90;;;;;;;25.61;50.32;99580.03;5102945;28;20020;-61
2021/06/14 09:35:18;;;;;;;6.85;3.45;;;;;;;25.82;49.48;99632.19;5102629;28;20028;-61
2021/06/14 09:37:55;;;;;;;5.97;4.15;;;;;;;25.53;50.43;99586.97;5102462;28;20020;-59
2021/06/14 09:40:38;;;;;;;5.95;4.30;;;;;;;25.79;48.77;99632.44;5120629;28;20043;-60
2021/06/14 09:43:06;;;;;;;6.55;4.30;;;;;;;25.87;48.75;99623.81;5122975;28;20040;-60
2021/06/14 09:45:33;;;;;;;6.32;4.18;;;;;;;26.05;50.42;99624.06;5122813;28;20027;-60
2021/06/14 09:47:59;;;;;;;5.80;4.03;;;;;;;26.07;49.80;99622.13;5123018;28;20137;-61
2021/06/14 09:50:31;;;;;;;5.38;4.28;;;;;;;26.00;48.51;99584.63;5112015;28;20247;-61
2021/06/14 09:53:11;;;;;;;5.15;4.07;;;;;;;26.08;50.47;99574.22;5112435;28;20031;-60
2021/06/14 09:55:39;;;;;;;6.82;3.70;;;;;;;26.45;48.64;99615.22;5114390;28;20050;-60
2021/06/14 09:58:21;;;;;;;5.60;4.00;;;;;;;26.26;48.57;99571.72;5104855;28;20032;-60
2021/06/14 10:01:03;;;;;;;5.70;3.92;;;;;;;26.49;48.55;99604.22;5102510;28;20027;-59
2021/06/14 10:03:46;;;;;;;5.43;4.15;;;;;;;26.33;45.76;99607.38;5110156;28;20268;-62
2021/06/14 10:06:13;;;;;;;5.47;4.10;;;;;;;26.48;46.28;99596.34;5106868;28;20024;-61
2021/06/14 10:08:44;;;;;;;6.88;3.88;;;;;;;26.37;46.01;99560.16;5105805;28;20031;-62
2021/06/14 10:11:13;;;;;;;4.78;3.50;;;;;;;26.76;47.09;99599.22;5104662;28;20035;-62
2021/06/14 10:13:41;;;;;;;6.70;3.78;;;;;;;26.77;45.15;99595.59;5102240;28;20036;-59
2021/06/14 10:16:21;;;;;;;5.95;3.75;;;;;;;26.85;46.58;99601.88;5102173;28;20309;-61
2021/06/14 10:18:55;;;;;;;4.45;3.70;;;;;;;26.99;45.14;99613.94;5106813;28;20035;-60
2021/06/14 10:21:29;;;;;;;5.80;3.58;;;;;;;26.85;45.63;99556.72;5106741;28;20359;-67
2021/06/14 10:23:57;;;;;;;10.60;3.80;;;;;;;26.97;44.90;99594.59;5112573;28;20032;-60
2021/06/14 10:26:24;;;;;;;7.20;3.63;;;;;;;26.99;47.51;99592.66;5122644;28;20082;-60
2021/06/14 10:28:50;;;;;;;6.55;3.53;;;;;;;26.80;45.70;99595.31;5122374;28;20035;-60
2021/06/14 10:31:18;;;;;;;5.88;3.42;;;;;;;26.59;43.39;99603.38;5108182;28;20039;-62
2021/06/14 10:33:47;;;;;;;3.80;3.40;;;;;;;26.50;43.57;99565.19;5102170;28;20051;-60
2021/06/14 10:36:14;;;;;;;4.50;3.42;;;;;;;26.59;43.02;99571.50;5102232;28;20024;-60
2021/06/14 10:38:46;;;;;;;3.42;3.00;;;;;;;26.83;43.71;99587.06;5105194;28;20099;-58
2021/06/14 10:41:13;;;;;;;5.35;2.90;;;;;;;26.95;42.47;99577.97;5109707;28;20032;-59
2021/06/14 10:43:40;;;;;;;6.60;2.88;;;;;;;27.19;44.13;99585.50;5102170;28;20049;-64
2021/06/14 10:46:10;;;;;;;5.00;3.15;;;;;;;27.06;42.92;99554.88;5101827;28;20208;-60
2021/06/14 10:48:38;;;;;;;5.10;3.60;;;;;;;27.28;42.46;99590.91;5108352;28;20024;-59
2021/06/14 10:51:12;;;;;;;4.85;3.10;;;;;;;27.04;41.55;99582.41;5123810;28;20053;-62
2021/06/14 10:53:38;;;;;;;3.15;2.92;;;;;;;27.11;41.40;99588.03;5126283;28;20027;-60
2021/06/14 10:56:05;;;;;;;3.38;2.78;;;;;;;27.14;45.51;99586.91;5126320;28;20098;-58
2021/06/14 10:58:32;;;;;;;3.25;2.92;;;;;;;27.20;42.25;99588.97;5124427;28;20031;-58
2021/06/14 11:01:07;;;;;;;3.47;3.17;;;;;;;27.30;42.42;99594.28;5121590;28;20027;-60
2021/06/14 11:03:46;;;;;;;6.22;3.10;;;;;;;26.95;40.61;99553.19;5119427;28;20036;-59
2021/06/14 11:06:29;;;;;;;3.60;2.97;;;;;;;27.35;41.78;99587.59;5107281;28;20047;-61
2021/06/14 11:09:12;;;;;;;3.00;2.72;;;;;;;27.15;42.23;99546.00;5092211;28;20027;-59
2021/06/14 11:11:48;;;;;;;4.82;3.05;;;;;;;27.45;42.64;99584.03;5125845;28;20063;-59
2021/06/14 11:14:34;;;;;;;3.95;2.88;;;;;;;27.51;41.20;99578.16;5125618;28;20052;-60
2021/06/14 11:17:31;;;;;;;3.42;3.13;;;;;;;27.30;41.96;99573.00;5125196;28;20039;-60
2021/06/14 11:20:00;;;;;;;5.90;2.97;;;;;;;27.39;41.34;99566.84;5115626;28;20228;-60
2021/06/14 11:22:36;;;;;;;4.10;3.10;;;;;;;27.21;40.91;99538.31;5125703;28;20338;-61
2021/06/14 11:25:24;;;;;;;5.18;3.45;;;;;;;27.54;43.57;99577.88;5125618;28;20297;-59
2021/06/14 11:27:50;;;;;;;3.65;2.60;;;;;;;27.63;42.30;99569.00;5125875;28;20034;-59
2021/06/14 11:30:29;;;;;;;3.22;2.72;;;;;;;27.70;42.26;99567.44;5109317;28;20291;-58
2021/06/14 11:32:55;;;;;;;3.47;3.15;;;;;;;27.56;40.85;99562.59;5104919;28;20023;-59
2021/06/14 11:35:22;;;;;;;5.53;2.80;;;;;;;27.64;40.47;99573.34;5104937;28;20031;-60
2021/06/14 11:37:49;;;;;;;3.30;3.00;;;;;;;27.44;41.75;99569.91;5107837;28;20058;-61
2021/06/14 11:40:23;;;;;;;3.97;3.55;;;;;;;27.35;42.58;99558.31;5100891;28;20202;-60
2021/06/14 11:42:54;;;;;;;3.72;3.10;;;;;;;26.97;43.14;99520.16;5104935;28;20024;-60